Time;durP1;ratioP1;P1;durP2;ratioP2;P2;SDS_P1;SDS_P2;PMS_P1;PMS_P2;Temp;Humidity;BMP_temperature;BMP_pressure;BME280_temperature;BME280_humidity;BME280_pressure;Samples;Min_cycle;Max_cycle;Signal;HPM_P1;HPM_P2
2022/03/20 00:01:36;;;;;;;15.20;7.78;;;2.00;99.90;;;;;;5037465;28;20135;-75
2022/03/20 00:04:04;;;;;;;13.98;7.82;;;2.00;99.90;;;;;;5030488;28;20045;-75
2022/03/20 00:06:34;;;;;;;15.40;8.07;;;2.00;99.90;;;;;;5061287;28;20083;-74
2022/03/20 00:09:02;;;;;;;17.13;8.25;;;2.00;99.90;;;;;;5038127;28;20053;-75
2022/03/20 00:11:30;;;;;;;16.30;8.43;;;1.90;99.90;;;;;;5064996;28;20438;-74
2022/03/20 00:13:59;;;;;;;12.63;7.25;;;1.90;99.90;;;;;;5036736;28;20044;-74
2022/03/20 00:16:29;;;;;;;25.35;11.82;;;1.90;99.90;;;;;;5046909;28;20571;-74
2022/03/20 00:18:58;;;;;;;17.85;9.48;;;1.90;99.90;;;;;;5052891;28;20048;-74
2022/03/20 00:21:25;;;;;;;17.02;7.53;;;1.90;99.90;;;;;;5046254;28;20045;-73
2022/03/20 00:23:53;;;;;;;15.75;6.60;;;1.90;99.90;;;;;;5045757;28;20084;-74
2022/03/20 00:26:21;;;;;;;11.68;6.70;;;1.90;99.90;;;;;;5055404;28;20045;-74
2022/03/20 00:28:48;;;;;;;15.40;6.07;;;1.90;99.90;;;;;;5018824;28;20049;-74
2022/03/20 00:31:17;;;;;;;15.95;6.78;;;1.80;99.90;;;;;;5060457;28;20115;-74
2022/03/20 00:33:45;;;;;;;11.18;5.88;;;1.80;99.90;;;;;;5062526;28;20404;-75
2022/03/20 00:36:12;;;;;;;12.50;7.03;;;1.80;99.90;;;;;;5054878;28;20045;-75
2022/03/20 00:38:39;;;;;;;14.88;7.28;;;1.80;99.90;;;;;;5052951;28;20044;-75
2022/03/20 00:41:07;;;;;;;9.45;5.78;;;1.80;99.90;;;;;;5032129;28;20136;-75
2022/03/20 00:43:36;;;;;;;11.43;5.65;;;1.80;99.90;;;;;;5033713;28;20057;-75
2022/03/20 00:46:04;;;;;;;10.43;5.45;;;1.80;99.90;;;;;;5052535;28;20389;-75
2022/03/20 00:48:32;;;;;;;11.60;5.35;;;1.80;99.90;;;;;;5052201;28;20049;-74
2022/03/20 00:51:03;;;;;;;10.88;5.30;;;1.80;99.90;;;;;;5052383;28;20458;-75
2022/03/20 00:53:31;;;;;;;10.57;5.05;;;1.80;99.90;;;;;;5051823;28;20049;-75
2022/03/20 00:55:58;;;;;;;7.90;5.45;;;1.90;99.90;;;;;;5034012;28;20448;-75
2022/03/20 00:58:26;;;;;;;14.45;6.28;;;1.90;99.90;;;;;;5034160;28;20140;-75
2022/03/20 01:00:53;;;;;;;6.93;4.57;;;1.90;99.90;;;;;;5030840;28;20604;-75
2022/03/20 01:03:21;;;;;;;8.68;5.43;;;1.80;99.90;;;;;;5047978;28;20401;-75
2022/03/20 01:05:50;;;;;;;11.10;5.03;;;1.80;99.90;;;;;;5049231;28;20481;-75
2022/03/20 01:08:18;;;;;;;11.05;4.80;;;1.80;99.90;;;;;;5030918;28;20060;-75
2022/03/20 01:10:45;;;;;;;8.55;4.30;;;1.80;99.90;;;;;;5026914;28;20041;-75
2022/03/20 01:13:13;;;;;;;8.48;4.32;;;1.80;99.90;;;;;;5052409;28;20078;-75
2022/03/20 01:15:40;;;;;;;6.70;3.97;;;1.80;99.90;;;;;;5048339;28;20595;-75
2022/03/20 01:18:08;;;;;;;7.72;3.20;;;1.80;99.90;;;;;;5046393;28;20052;-75
2022/03/20 01:20:35;;;;;;;8.57;2.78;;;1.80;99.90;;;;;;5056751;28;20102;-75
2022/03/20 01:23:04;;;;;;;6.68;2.95;;;1.80;99.90;;;;;;5051039;28;20144;-75
2022/03/20 01:25:32;;;;;;;8.40;3.28;;;1.90;99.90;;;;;;5059683;28;20137;-74
2022/03/20 01:27:59;;;;;;;9.35;3.63;;;1.80;99.90;;;;;;5054028;28;20053;-74
2022/03/20 01:30:27;;;;;;;9.23;3.30;;;1.80;99.90;;;;;;5054092;28;20048;-74
2022/03/20 01:32:54;;;;;;;8.75;3.03;;;1.80;99.90;;;;;;5054387;28;20067;-74
2022/03/20 01:35:22;;;;;;;12.48;2.92;;;1.80;99.90;;;;;;5070135;28;20040;-74
2022/03/20 01:37:50;;;;;;;5.25;3.22;;;1.80;99.90;;;;;;5066207;28;20052;-74
2022/03/20 01:40:19;;;;;;;8.18;3.72;;;1.80;99.90;;;;;;5060921;28;20040;-75
2022/03/20 01:42:48;;;;;;;5.50;3.05;;;1.80;99.90;;;;;;5046832;28;20139;-74
2022/03/20 01:45:18;;;;;;;5.85;2.53;;;1.80;99.90;;;;;;5065540;28;20049;-75
2022/03/20 01:47:47;;;;;;;14.82;4.07;;;1.80;99.90;;;;;;5053208;28;20060;-74
2022/03/20 01:50:14;;;;;;;6.82;2.80;;;1.70;99.90;;;;;;5068372;28;20067;-74
2022/03/20 01:52:42;;;;;;;6.80;3.22;;;1.80;99.90;;;;;;5053204;28;20390;-75
2022/03/20 01:55:10;;;;;;;7.80;2.30;;;1.80;99.90;;;;;;5051643;28;20638;-74
2022/03/20 01:57:40;;;;;;;9.35;2.75;;;1.80;99.90;;;;;;5063309;28;20481;-74
2022/03/20 02:00:12;;;;;;;6.45;2.45;;;1.80;99.90;;;;;;5060700;28;20068;-75
2022/03/20 02:02:40;;;;;;;9.73;3.00;;;1.70;99.90;;;;;;5041647;28;20049;-74
2022/03/20 02:05:10;;;;;;;5.97;3.00;;;1.70;99.90;;;;;;5066308;28;20044;-74
2022/03/20 02:07:38;;;;;;;8.48;2.75;;;1.70;99.90;;;;;;5034138;28;20140;-74
2022/03/20 02:10:07;;;;;;;5.38;2.97;;;1.70;99.90;;;;;;5064067;28;20103;-74
2022/03/20 02:12:37;;;;;;;8.43;3.17;;;1.70;99.90;;;;;;5057289;28;20052;-73
2022/03/20 02:15:09;;;;;;;6.22;2.72;;;1.70;99.90;;;;;;5055247;28;20420;-75
2022/03/20 02:17:38;;;;;;;16.48;4.13;;;1.70;99.90;;;;;;5015042;28;20095;-75
2022/03/20 02:20:09;;;;;;;12.63;3.50;;;1.60;99.90;;;;;;5045107;28;20040;-75
2022/03/20 02:22:43;;;;;;;8.60;2.88;;;1.70;99.90;;;;;;5058872;28;20083;-76
2022/03/20 02:25:14;;;;;;;8.35;3.20;;;1.60;99.90;;;;;;5049871;28;20421;-75
2022/03/20 02:27:44;;;;;;;6.72;3.15;;;1.60;99.90;;;;;;5048737;28;20464;-75
2022/03/20 02:30:15;;;;;;;8.65;2.92;;;1.60;99.90;;;;;;5048161;28;20052;-75
2022/03/20 02:32:45;;;;;;;6.60;3.03;;;1.60;99.90;;;;;;5038090;28;20520;-75
2022/03/20 02:35:15;;;;;;;7.78;3.50;;;1.60;99.90;;;;;;5049631;28;20513;-76
2022/03/20 02:37:47;;;;;;;9.63;3.75;;;1.60;99.90;;;;;;5043709;28;20052;-75
2022/03/20 02:40:17;;;;;;;8.80;4.22;;;1.60;99.90;;;;;;5049165;28;20048;-76
2022/03/20 02:42:48;;;;;;;9.55;3.22;;;1.60;99.90;;;;;;5047001;28;20339;-74
2022/03/20 02:45:20;;;;;;;6.70;2.42;;;1.60;99.90;;;;;;5057800;28;20109;-74
2022/03/20 02:47:49;;;;;;;5.93;2.40;;;1.60;99.90;;;;;;5022159;28;20050;-74
2022/03/20 02:50:20;;;;;;;6.28;2.90;;;1.60;99.90;;;;;;5059027;28;20048;-74
2022/03/20 02:52:52;;;;;;;8.30;2.55;;;1.60;99.90;;;;;;5032722;28;20060;-74
2022/03/20 02:55:22;;;;;;;9.13;2.63;;;1.60;99.90;;;;;;5048903;28;20417;-74
2022/03/20 02:57:50;;;;;;;9.57;2.75;;;1.60;99.90;;;;;;5050598;28;20068;-74
2022/03/20 03:00:21;;;;;;;3.45;2.47;;;1.50;99.90;;;;;;5050343;28;20060;-73
2022/03/20 03:02:51;;;;;;;10.50;2.80;;;1.60;99.90;;;;;;5033072;28;20051;-74
2022/03/20 03:05:21;;;;;;;8.02;2.75;;;1.50;99.90;;;;;;5047080;28;20056;-74
2022/03/20 03:10:59;;;;;;;6.75;2.40;;;1.50;99.90;;;;;;5041693;28;20098;-75
2022/03/20 03:13:38;;;;;;;5.05;2.33;;;1.50;99.90;;;;;;5012879;28;20054;-74
2022/03/20 03:16:13;;;;;;;7.25;2.53;;;1.50;99.90;;;;;;5047041;28;20064;-74
2022/03/20 03:18:43;;;;;;;7.97;3.05;;;1.50;99.90;;;;;;5027096;28;20494;-75
2022/03/20 03:21:11;;;;;;;5.15;2.42;;;1.50;99.90;;;;;;5047369;28;20040;-75
2022/03/20 03:23:40;;;;;;;16.33;2.60;;;1.40;99.90;;;;;;5041581;28;20056;-75
2022/03/20 03:26:08;;;;;;;5.68;2.60;;;1.40;99.90;;;;;;5066872;28;20125;-74
2022/03/20 03:28:37;;;;;;;7.97;2.80;;;1.50;99.90;;;;;;5050749;28;20156;-75
2022/03/20 03:31:07;;;;;;;9.30;2.50;;;1.50;99.90;;;;;;5015849;28;20052;-75
2022/03/20 03:35:41;;;;;;;5.97;2.17;;;1.40;99.90;;;;;;5051016;28;20111;-75
2022/03/20 03:36:26;;;;;;;10.88;3.13;;;1.40;99.90;;;;;;5019148;28;20033;-75
2022/03/20 03:38:55;;;;;;;6.35;2.17;;;1.40;99.90;;;;;;5054089;28;20055;-73
2022/03/20 03:41:24;;;;;;;9.35;2.90;;;1.30;99.90;;;;;;5035603;28;20037;-74
2022/03/20 03:43:52;;;;;;;5.03;2.63;;;1.30;99.90;;;;;;5053945;28;20531;-73
2022/03/20 03:46:19;;;;;;;8.55;2.53;;;1.30;99.90;;;;;;5064814;28;20063;-74
2022/03/20 03:48:46;;;;;;;10.85;3.25;;;1.30;99.90;;;;;;5074129;28;20139;-73
2022/03/20 03:51:14;;;;;;;5.75;2.95;;;1.30;99.90;;;;;;5039453;28;20052;-74
2022/03/20 03:53:41;;;;;;;5.65;2.63;;;1.30;99.90;;;;;;5066608;28;20083;-74
2022/03/20 03:56:10;;;;;;;5.97;2.38;;;1.30;99.90;;;;;;5033430;28;20056;-74
2022/03/20 03:58:37;;;;;;;7.43;3.05;;;1.30;99.90;;;;;;5046468;28;20516;-75
2022/03/20 04:01:05;;;;;;;7.93;2.50;;;1.30;99.90;;;;;;5034264;28;20080;-75
2022/03/20 04:03:33;;;;;;;7.40;2.60;;;1.30;99.90;;;;;;5043016;28;20131;-74
2022/03/20 04:06:05;;;;;;;7.25;2.30;;;1.30;99.90;;;;;;5034949;28;20520;-74
2022/03/20 04:08:34;;;;;;;10.03;3.10;;;1.30;99.90;;;;;;5038062;28;20083;-74
2022/03/20 04:11:02;;;;;;;7.18;2.42;;;1.30;99.90;;;;;;5052264;28;20566;-69
2022/03/20 04:13:31;;;;;;;4.80;1.92;;;1.40;99.90;;;;;;5018355;28;20094;-69
2022/03/20 04:15:58;;;;;;;7.90;2.33;;;1.40;99.90;;;;;;5051041;28;20056;-69
2022/03/20 04:18:26;;;;;;;7.75;2.25;;;1.40;99.90;;;;;;5038941;28;20045;-70
2022/03/20 04:20:54;;;;;;;5.93;2.63;;;1.40;99.90;;;;;;5040701;28;20049;-69
2022/03/20 04:26:07;;;;;;;8.48;2.17;;;1.30;99.90;;;;;;5054122;28;20086;-68
2022/03/20 04:28:35;;;;;;;6.57;2.20;;;1.40;99.90;;;;;;5035005;28;20174;-68
2022/03/20 04:31:04;;;;;;;8.77;2.00;;;1.40;99.90;;;;;;5052413;28;20049;-69
2022/03/20 04:33:31;;;;;;;5.55;2.22;;;1.40;99.90;;;;;;5024812;28;20115;-69
2022/03/20 04:35:59;;;;;;;9.75;2.25;;;1.40;99.90;;;;;;5027185;28;20041;-69
2022/03/20 04:38:27;;;;;;;7.60;2.28;;;1.40;99.90;;;;;;5062834;28;20044;-69
2022/03/20 04:40:55;;;;;;;6.72;2.25;;;1.40;99.90;;;;;;5034016;28;20426;-69
2022/03/20 04:43:22;;;;;;;10.63;2.25;;;1.40;99.90;;;;;;5053182;28;20045;-69
2022/03/20 04:45:52;;;;;;;9.93;2.83;;;1.40;99.90;;;;;;5035768;28;20044;-69
2022/03/20 04:59:18;;;;;;;9.38;2.40;;;1.50;99.90;;;;;;5031783;28;20049;-69
2022/03/20 05:01:47;;;;;;;7.40;2.03;;;1.60;99.90;;;;;;5039601;28;20061;-70
2022/03/20 05:04:15;;;;;;;7.70;2.90;;;1.60;99.90;;;;;;5031434;28;20053;-69
2022/03/20 05:06:43;;;;;;;8.68;2.47;;;1.60;99.90;;;;;;5041737;28;20048;-69
2022/03/20 05:14:41;;;;;;;10.75;3.20;;;1.70;99.90;;;;;;5032194;28;20497;-69
2022/03/20 05:17:11;;;;;;;6.97;3.10;;;1.70;99.90;;;;;;5038765;28;20084;-69
2022/03/20 05:19:41;;;;;;;12.75;2.13;;;1.70;99.90;;;;;;5044102;28;20549;-70
2022/03/20 05:22:11;;;;;;;6.00;2.00;;;1.80;99.90;;;;;;5050865;28;20052;-70
2022/03/20 05:24:40;;;;;;;5.95;1.58;;;1.80;99.90;;;;;;5046465;28;20524;-69
2022/03/20 05:27:09;;;;;;;8.20;2.67;;;1.80;99.90;;;;;;5036339;28;20121;-69
2022/03/20 05:29:38;;;;;;;5.47;2.13;;;1.80;99.90;;;;;;5033841;28;20499;-69
2022/03/20 05:32:07;;;;;;;7.28;2.10;;;1.80;99.90;;;;;;5055871;28;20501;-69
2022/03/20 05:34:38;;;;;;;7.38;2.08;;;1.90;99.90;;;;;;5051097;28;20451;-70
2022/03/20 05:37:07;;;;;;;7.28;2.00;;;1.90;99.90;;;;;;5044878;28;20064;-70
2022/03/20 05:39:35;;;;;;;6.30;2.22;;;1.90;99.90;;;;;;5039381;28;20454;-69
2022/03/20 05:42:03;;;;;;;6.90;2.20;;;1.90;99.90;;;;;;5027555;28;20430;-68
2022/03/20 05:44:33;;;;;;;6.45;1.80;;;2.00;99.90;;;;;;5052760;28;20052;-69
2022/03/20 05:47:02;;;;;;;8.52;1.70;;;2.00;99.90;;;;;;5052570;28;20041;-76
2022/03/20 05:49:30;;;;;;;9.50;2.17;;;2.00;99.90;;;;;;5052804;28;20056;-76
2022/03/20 05:51:59;;;;;;;6.55;2.47;;;2.00;99.90;;;;;;5047985;28;20053;-76
2022/03/20 05:54:26;;;;;;;5.00;2.00;;;2.00;99.90;;;;;;5035423;28;20057;-76
2022/03/20 05:59:40;;;;;;;5.80;2.05;;;2.00;99.90;;;;;;5036314;28;20521;-75
2022/03/20 06:02:09;;;;;;;5.03;1.60;;;2.00;99.90;;;;;;5019962;28;20044;-74
2022/03/20 06:04:38;;;;;;;7.03;1.55;;;2.10;99.90;;;;;;5031121;28;20057;-74
2022/03/20 06:07:08;;;;;;;8.25;2.10;;;2.00;99.90;;;;;;5014880;28;20048;-76
2022/03/20 06:09:37;;;;;;;8.45;2.38;;;2.10;99.90;;;;;;5017833;28;20056;-76
2022/03/20 06:12:06;;;;;;;9.00;2.00;;;2.20;99.90;;;;;;5014263;28;20049;-76
2022/03/20 06:14:34;;;;;;;10.48;2.47;;;2.20;99.90;;;;;;5037710;28;20072;-73
2022/03/20 06:17:05;;;;;;;6.43;2.20;;;2.30;99.90;;;;;;5029671;28;20045;-76
2022/03/20 06:19:33;;;;;;;5.95;1.80;;;2.20;99.90;;;;;;5044296;28;20502;-77
2022/03/20 06:22:02;;;;;;;15.57;4.30;;;2.30;99.90;;;;;;5050607;28;20087;-75
2022/03/20 06:24:32;;;;;;;3.22;1.55;;;2.30;99.90;;;;;;5050756;28;20106;-75
2022/03/20 06:26:59;;;;;;;6.18;1.70;;;2.40;99.90;;;;;;5051470;28;20521;-75
2022/03/20 06:29:26;;;;;;;6.90;2.20;;;2.40;99.90;;;;;;5051648;28;20061;-74
2022/03/20 06:31:54;;;;;;;11.73;3.03;;;2.50;99.90;;;;;;5052256;28;20472;-74
2022/03/20 06:34:22;;;;;;;6.10;1.98;;;2.60;99.90;;;;;;5033778;28;20057;-70
2022/03/20 06:36:49;;;;;;;8.52;2.20;;;2.60;99.90;;;;;;5016233;28;20041;-69
2022/03/20 06:39:16;;;;;;;8.32;1.83;;;2.70;99.90;;;;;;5050360;28;20475;-69
2022/03/20 06:41:46;;;;;;;4.95;1.90;;;2.80;99.90;;;;;;5034789;28;20059;-77
2022/03/20 06:44:15;;;;;;;10.15;2.50;;;2.80;99.90;;;;;;5058491;28;20135;-77
2022/03/20 06:46:43;;;;;;;7.60;1.80;;;2.80;99.90;;;;;;5020448;28;20367;-68
2022/03/20 06:49:11;;;;;;;8.40;2.00;;;2.90;99.90;;;;;;5021084;28;20049;-70
2022/03/20 06:51:38;;;;;;;6.28;2.50;;;2.90;99.90;;;;;;5042556;28;20056;-69
2022/03/20 06:54:07;;;;;;;7.63;2.38;;;3.00;99.90;;;;;;5024701;28;20440;-70
2022/03/20 06:56:34;;;;;;;9.77;2.45;;;3.20;99.90;;;;;;5046223;28;20111;-70
2022/03/20 06:59:03;;;;;;;4.88;2.40;;;3.80;99.90;;;;;;5047971;28;20037;-71
2022/03/20 07:01:31;;;;;;;8.35;2.22;;;4.60;99.90;;;;;;5049234;28;20500;-69
2022/03/20 07:03:59;;;;;;;4.78;1.95;;;5.60;99.90;;;;;;5042362;28;20482;-70
2022/03/20 07:06:29;;;;;;;6.40;1.85;;;6.70;99.90;;;;;;5029725;28;20095;-69
2022/03/20 07:08:59;;;;;;;14.00;3.05;;;7.80;99.90;;;;;;5050402;28;20049;-69
2022/03/20 07:11:32;;;;;;;5.82;2.17;;;8.70;99.90;;;;;;5053127;28;20064;-69
2022/03/20 07:14:03;;;;;;;7.35;2.30;;;9.40;99.90;;;;;;5050844;28;20059;-68
2022/03/20 07:16:33;;;;;;;9.88;2.38;;;10.20;99.90;;;;;;5050362;28;20052;-70
2022/03/20 07:19:01;;;;;;;8.15;3.67;;;10.90;99.90;;;;;;5055627;28;20040;-70
2022/03/20 07:21:32;;;;;;;7.78;3.00;;;11.40;99.90;;;;;;5034156;28;20124;-70
2022/03/20 07:24:00;;;;;;;9.27;2.70;;;11.70;96.70;;;;;;5055276;28;20689;-70
2022/03/20 07:29:33;;;;;;;5.85;2.03;;;12.70;91.30;;;;;;5051487;28;20057;-77
2022/03/20 07:32:02;;;;;;;11.18;2.63;;;13.00;87.30;;;;;;5045610;28;20110;-77
2022/03/20 07:34:30;;;;;;;8.98;2.50;;;13.30;84.90;;;;;;5047742;28;20060;-75
2022/03/20 07:36:58;;;;;;;6.55;2.10;;;13.60;79.60;;;;;;5035509;28;20107;-78
2022/03/20 07:39:26;;;;;;;7.47;3.00;;;13.70;78.10;;;;;;5054549;28;20144;-78
2022/03/20 07:41:53;;;;;;;6.97;2.60;;;13.80;76.00;;;;;;5021627;28;20050;-78
2022/03/20 07:44:29;;;;;;;7.35;2.78;;;13.90;77.00;;;;;;5009524;28;20041;-75
2022/03/20 07:46:57;;;;;;;9.27;2.50;;;14.40;72.20;;;;;;5048809;28;20049;-77
2022/03/20 07:49:25;;;;;;;11.63;3.85;;;14.10;71.40;;;;;;5033854;28;20159;-78
2022/03/20 07:51:53;;;;;;;8.05;3.08;;;13.90;73.00;;;;;;5032584;28;20401;-76
2022/03/20 07:54:21;;;;;;;7.90;3.33;;;14.10;71.40;;;;;;5046509;28;20439;-80
2022/03/20 07:56:51;;;;;;;13.63;2.70;;;14.20;71.60;;;;;;5048672;28;20056;-78
2022/03/20 07:59:19;;;;;;;13.27;3.50;;;14.60;70.60;;;;;;5051352;28;20073;-74
2022/03/20 08:01:49;;;;;;;11.52;2.75;;;14.80;69.70;;;;;;5017221;28;20048;-71
2022/03/20 08:04:17;;;;;;;7.22;2.55;;;14.90;67.50;;;;;;5052873;28;21215;-77
2022/03/20 08:06:45;;;;;;;11.85;2.53;;;14.60;66.10;;;;;;5051792;28;20501;-77
2022/03/20 08:09:13;;;;;;;9.20;3.00;;;14.50;67.60;;;;;;5052397;28;20044;-75
2022/03/20 08:11:42;;;;;;;13.95;2.60;;;14.80;67.30;;;;;;5040722;28;20808;-76
2022/03/20 08:14:10;;;;;;;10.40;3.00;;;15.10;66.40;;;;;;5045125;28;20048;-74
2022/03/20 08:16:39;;;;;;;6.07;2.65;;;15.50;65.40;;;;;;5036483;28;20119;-67
2022/03/20 08:19:09;;;;;;;17.48;3.85;;;15.80;62.60;;;;;;5028141;28;20098;-68
2022/03/20 08:21:37;;;;;;;12.13;2.70;;;15.80;63.20;;;;;;5052101;28;20063;-67
2022/03/20 08:24:06;;;;;;;15.45;3.28;;;16.30;61.60;;;;;;4957180;28;20045;-68
2022/03/20 08:26:34;;;;;;;10.65;2.92;;;16.60;59.80;;;;;;5053614;28;20677;-68
2022/03/20 08:29:03;;;;;;;9.88;3.22;;;16.70;59.80;;;;;;5050868;28;20099;-68
2022/03/20 08:31:33;;;;;;;12.65;2.83;;;17.20;58.80;;;;;;5045237;28;20544;-68
2022/03/20 08:34:01;;;;;;;8.32;2.97;;;17.70;57.50;;;;;;5051962;28;20057;-69
2022/03/20 08:36:31;;;;;;;11.98;3.63;;;17.80;56.80;;;;;;5037087;28;20041;-68
2022/03/20 08:38:58;;;;;;;14.50;3.15;;;17.90;56.20;;;;;;5051103;28;20076;-71
2022/03/20 08:41:26;;;;;;;14.00;2.95;;;18.20;55.30;;;;;;5058010;28;20045;-70
2022/03/20 08:43:56;;;;;;;14.60;2.95;;;18.20;54.90;;;;;;5050921;28;20048;-77
2022/03/20 08:46:24;;;;;;;9.93;3.53;;;18.10;55.50;;;;;;5055746;28;20139;-76
2022/03/20 08:48:51;;;;;;;10.00;3.10;;;18.60;54.70;;;;;;5042610;28;20147;-68
2022/03/20 08:51:19;;;;;;;9.60;3.05;;;18.90;53.80;;;;;;5037880;28;20110;-68
2022/03/20 08:53:48;;;;;;;6.10;2.40;;;19.40;53.40;;;;;;5050548;28;20049;-68
2022/03/20 08:56:16;;;;;;;11.90;3.33;;;19.40;52.50;;;;;;5034700;28;20498;-70
2022/03/20 08:58:44;;;;;;;13.55;3.03;;;19.40;51.80;;;;;;5052411;28;20118;-69
2022/03/20 09:01:11;;;;;;;11.00;3.47;;;19.00;52.80;;;;;;5051337;28;20135;-70
2022/03/20 09:03:39;;;;;;;12.25;2.97;;;19.20;52.70;;;;;;5051775;28;20473;-70
2022/03/20 09:06:06;;;;;;;10.60;3.70;;;19.40;52.00;;;;;;5017594;28;20057;-68
2022/03/20 09:08:34;;;;;;;12.32;4.32;;;19.60;51.50;;;;;;5033716;28;20083;-69
2022/03/20 09:11:02;;;;;;;17.90;4.72;;;19.50;52.00;;;;;;5039254;28;20505;-71
2022/03/20 09:13:31;;;;;;;18.05;4.20;;;19.80;51.50;;;;;;5046594;28;20052;-69
2022/03/20 09:19:03;;;;;;;9.45;3.70;;;19.80;51.20;;;;;;5033816;28;20142;-70
2022/03/20 09:21:33;;;;;;;9.68;3.58;;;20.20;50.60;;;;;;5025882;28;20165;-69
2022/03/20 09:24:01;;;;;;;12.00;3.33;;;20.10;50.50;;;;;;5038357;28;20051;-68
2022/03/20 09:26:30;;;;;;;13.63;3.67;;;20.10;50.50;;;;;;5064417;28;20044;-69
2022/03/20 09:28:58;;;;;;;14.65;4.20;;;20.60;50.10;;;;;;5051755;28;20040;-69
2022/03/20 09:31:27;;;;;;;11.00;3.30;;;20.70;50.00;;;;;;5044433;28;20524;-69
2022/03/20 09:33:54;;;;;;;10.15;3.53;;;20.70;49.00;;;;;;5051018;28;20128;-68
2022/03/20 09:36:24;;;;;;;19.52;3.92;;;20.80;49.20;;;;;;5012577;28;20053;-71
2022/03/20 09:38:52;;;;;;;17.23;4.82;;;20.80;49.20;;;;;;5029376;28;20513;-69
2022/03/20 09:41:21;;;;;;;12.77;5.25;;;20.80;48.90;;;;;;5048533;28;20394;-77
2022/03/20 09:43:50;;;;;;;15.85;4.82;;;20.80;49.20;;;;;;5048665;28;20052;-77
2022/03/20 09:46:23;;;;;;;14.35;5.07;;;21.00;49.20;;;;;;5031277;28;20060;-79
2022/03/20 09:48:51;;;;;;;;;;;21.00;48.90;;;;;;5050100;28;20497;-76
2022/03/20 09:51:19;;;;;;;16.63;5.32;;;20.50;48.70;;;;;;5049668;28;19924;-68
2022/03/20 09:53:46;;;;;;;16.42;5.70;;;19.90;49.50;;;;;;5048837;28;20067;-69
2022/03/20 09:56:14;;;;;;;11.18;4.22;;;18.90;51.00;;;;;;5030993;28;20049;-70
2022/03/20 09:58:42;;;;;;;16.08;4.63;;;18.20;52.50;;;;;;5048051;28;20513;-73
2022/03/20 10:01:11;;;;;;;17.35;3.90;;;17.60;53.30;;;;;;5043899;28;20053;-68
2022/03/20 10:03:38;;;;;;;18.08;4.82;;;17.30;54.30;;;;;;5032613;28;20049;-68
2022/03/20 10:06:09;;;;;;;12.13;3.80;;;17.20;54.80;;;;;;5051006;28;20044;-69
2022/03/20 10:08:37;;;;;;;13.13;4.60;;;17.50;55.40;;;;;;5050762;28;20493;-69
2022/03/20 10:11:15;;;;;;;16.27;3.47;;;17.80;54.80;;;;;;5050418;28;20057;-69
2022/03/20 10:14:09;;;;;;;12.40;3.78;;;18.20;53.90;;;;;;4997173;28;20470;-69
2022/03/20 10:16:41;;;;;;;14.07;3.85;;;19.00;53.10;;;;;;5048154;28;20057;-69
2022/03/20 10:19:33;;;;;;;24.77;5.18;;;19.70;51.50;;;;;;5046879;28;20045;-68
2022/03/20 10:22:05;;;;;;;16.38;4.15;;;20.20;50.50;;;;;;5031471;28;20118;-69
2022/03/20 10:24:35;;;;;;;14.63;5.10;;;20.70;49.50;;;;;;5026338;28;20056;-70
2022/03/20 10:27:21;;;;;;;12.98;3.22;;;21.10;49.10;;;;;;5027133;28;20440;-70
2022/03/20 10:29:54;;;;;;;15.90;4.47;;;21.30;48.40;;;;;;5033437;28;20408;-71
2022/03/20 10:32:25;;;;;;;15.95;6.75;;;21.30;47.80;;;;;;5046151;28;20080;-70
2022/03/20 10:34:56;;;;;;;12.23;4.30;;;21.50;48.00;;;;;;5044589;28;20056;-70
2022/03/20 10:37:46;;;;;;;21.38;5.35;;;21.60;47.70;;;;;;5014421;28;20523;-70
2022/03/20 10:40:17;;;;;;;14.43;4.38;;;20.80;47.90;;;;;;5037794;28;20084;-72
2022/03/20 10:42:45;;;;;;;11.55;2.95;;;20.20;49.10;;;;;;5029393;28;20041;-69
2022/03/20 10:45:13;;;;;;;12.70;3.63;;;19.80;49.90;;;;;;5041747;28;20055;-70
2022/03/20 10:47:42;;;;;;;9.85;3.30;;;19.70;50.60;;;;;;5050566;28;20053;-70
2022/03/20 10:50:11;;;;;;;13.63;3.50;;;19.80;50.30;;;;;;5016324;28;20477;-69
2022/03/20 10:52:39;;;;;;;13.48;3.70;;;19.50;51.30;;;;;;5032588;28;20048;-70
2022/03/20 10:55:10;;;;;;;21.50;4.50;;;19.20;51.30;;;;;;5032320;28;20140;-70
2022/03/20 10:57:39;;;;;;;9.95;3.10;;;19.30;52.10;;;;;;5032413;28;20053;-70
2022/03/20 11:00:10;;;;;;;16.48;3.92;;;19.30;51.20;;;;;;5041059;28;20506;-69
2022/03/20 11:02:41;;;;;;;20.88;4.10;;;19.60;50.70;;;;;;5029366;28;20060;-69
2022/03/20 11:05:15;;;;;;;11.45;4.18;;;19.90;50.60;;;;;;5033075;28;20060;-70
2022/03/20 11:07:43;;;;;;;8.43;3.67;;;20.00;50.60;;;;;;5030429;28;20481;-70
2022/03/20 11:10:13;;;;;;;13.13;4.18;;;19.70;49.90;;;;;;5028843;28;20044;-70
2022/03/20 11:12:43;;;;;;;9.13;3.50;;;19.30;50.70;;;;;;5012528;28;20079;-70
2022/03/20 11:15:11;;;;;;;10.45;4.18;;;19.10;51.00;;;;;;5037522;28;20041;-70
2022/03/20 11:17:43;;;;;;;18.92;4.00;;;18.90;51.40;;;;;;5050108;28;20135;-72
2022/03/20 11:20:14;;;;;;;7.85;2.78;;;18.60;51.70;;;;;;5040083;28;20088;-71
2022/03/20 11:22:48;;;;;;;9.30;2.70;;;18.50;52.70;;;;;;5037511;28;20048;-70
2022/03/20 11:25:20;;;;;;;10.90;3.45;;;18.60;52.50;;;;;;5050040;28;20053;-69
2022/03/20 11:27:52;;;;;;;13.05;3.08;;;18.90;52.80;;;;;;5049979;28;20045;-69
2022/03/20 11:30:25;;;;;;;10.27;3.28;;;19.20;51.70;;;;;;5038349;28;20525;-69
2022/03/20 11:32:56;;;;;;;11.40;2.88;;;19.90;50.20;;;;;;5030350;28;20053;-69
2022/03/20 11:35:27;;;;;;;11.80;3.35;;;20.50;49.10;;;;;;5040825;28;20053;-71
2022/03/20 11:37:59;;;;;;;6.63;2.65;;;21.00;49.10;;;;;;5047506;28;20076;-69
2022/03/20 11:40:30;;;;;;;14.87;3.53;;;21.30;47.70;;;;;;5045388;28;20107;-69
2022/03/20 11:43:16;;;;;;;15.00;3.45;;;21.70;46.70;;;;;;5029383;28;20076;-68
2022/03/20 11:46:19;;;;;;;11.75;3.88;;;21.70;47.00;;;;;;5043819;28;20044;-69
2022/03/20 11:49:23;;;;;;;11.10;2.90;;;21.80;46.20;;;;;;5050033;28;20338;-67
2022/03/20 11:51:57;;;;;;;14.55;3.13;;;21.90;46.80;;;;;;5036928;28;20064;-69
2022/03/20 11:54:50;;;;;;;14.95;4.25;;;22.20;46.80;;;;;;5032808;28;20075;-70
2022/03/20 11:57:44;;;;;;;19.30;4.03;;;22.60;45.60;;;;;;5051292;28;20085;-70
2022/03/20 12:00:16;;;;;;;7.85;2.63;;;22.60;45.30;;;;;;5033990;28;20107;-68
2022/03/20 12:02:54;;;;;;;10.90;2.97;;;22.10;46.10;;;;;;5051661;28;20080;-68
2022/03/20 12:05:51;;;;;;;14.82;3.85;;;21.90;45.80;;;;;;5024321;28;20053;-69
2022/03/20 12:08:37;;;;;;;9.85;3.50;;;21.50;46.20;;;;;;5033060;28;20426;-68
2022/03/20 12:11:22;;;;;;;13.63;3.25;;;21.30;46.50;;;;;;5049950;28;20107;-70
2022/03/20 12:14:04;;;;;;;10.43;3.28;;;21.10;47.30;;;;;;5051484;28;20052;-69
2022/03/20 12:16:58;;;;;;;15.02;2.88;;;20.80;47.50;;;;;;5043511;28;20429;-69
2022/03/20 12:19:41;;;;;;;10.32;2.78;;;20.90;47.20;;;;;;5050657;28;20053;-69
2022/03/20 12:22:14;;;;;;;11.45;3.40;;;21.10;47.00;;;;;;5050773;28;20420;-70
2022/03/20 12:24:54;;;;;;;10.48;2.75;;;21.10;46.30;;;;;;5034111;28;20151;-70
2022/03/20 12:27:42;;;;;;;18.30;4.18;;;21.10;46.80;;;;;;5052253;28;20063;-69
2022/03/20 12:30:36;;;;;;;16.55;3.72;;;21.20;46.50;;;;;;5034181;28;20156;-68
2022/03/20 12:33:23;;;;;;;12.27;3.40;;;20.90;46.70;;;;;;5033986;28;20118;-71
2022/03/20 12:35:51;;;;;;;10.25;3.40;;;20.70;46.50;;;;;;5044129;28;20501;-69
2022/03/20 12:38:47;;;;;;;14.07;3.35;;;20.60;47.00;;;;;;5052175;28;20079;-68
2022/03/20 12:41:19;;;;;;;11.13;3.08;;;20.00;47.50;;;;;;4994249;28;20060;-69
2022/03/20 12:44:03;;;;;;;11.15;3.08;;;19.10;48.70;;;;;;5040269;28;20076;-68
2022/03/20 12:46:31;;;;;;;14.80;3.13;;;18.70;50.00;;;;;;5024084;28;20564;-70
2022/03/20 12:48:58;;;;;;;12.02;3.03;;;18.50;50.10;;;;;;5051878;28;20053;-71
2022/03/20 12:51:35;;;;;;;13.60;2.65;;;18.10;50.60;;;;;;5023054;28;20518;-70
2022/03/20 12:54:13;;;;;;;10.63;2.97;;;18.30;51.10;;;;;;5032955;28;20045;-68
2022/03/20 12:56:55;;;;;;;11.93;3.25;;;18.70;51.10;;;;;;5032273;28;20119;-69
2022/03/20 12:59:24;;;;;;;21.47;3.03;;;19.60;49.30;;;;;;5035241;28;20045;-69
2022/03/20 13:01:51;;;;;;;15.63;3.28;;;20.50;48.00;;;;;;5033633;28;20307;-68
2022/03/20 13:04:20;;;;;;;9.40;2.72;;;21.30;46.30;;;;;;5047296;28;20045;-71
2022/03/20 13:06:48;;;;;;;14.63;4.18;;;21.60;45.90;;;;;;5021304;28;20053;-69
2022/03/20 13:09:17;;;;;;;18.67;3.47;;;22.20;45.50;;;;;;5032335;28;20073;-69
2022/03/20 13:11:56;;;;;;;20.30;3.42;;;22.90;44.20;;;;;;5047352;28;20055;-70
2022/03/20 13:14:24;;;;;;;15.85;3.38;;;22.40;44.00;;;;;;5051099;28;20115;-69
2022/03/20 13:16:54;;;;;;;12.70;3.28;;;21.90;44.90;;;;;;5045118;28;20468;-68
2022/03/20 13:19:31;;;;;;;13.57;2.78;;;22.20;44.90;;;;;;5049878;28;20147;-68
2022/03/20 13:22:02;;;;;;;10.48;3.00;;;22.60;44.30;;;;;;5050933;28;20537;-68
2022/03/20 13:24:34;;;;;;;8.90;3.40;;;23.20;43.30;;;;;;5046719;28;20053;-68
2022/03/20 13:27:04;;;;;;;8.25;2.97;;;23.60;42.60;;;;;;5031386;28;20053;-69
2022/03/20 13:29:32;;;;;;;10.73;3.00;;;23.80;42.60;;;;;;5035813;28;20084;-69
2022/03/20 13:32:12;;;;;;;10.93;3.25;;;24.20;41.50;;;;;;5051230;28;20048;-69
2022/03/20 13:34:46;;;;;;;6.78;2.97;;;24.10;41.40;;;;;;5044064;28;20076;-69
2022/03/20 13:37:17;;;;;;;15.95;3.83;;;24.00;41.80;;;;;;5027270;28;20052;-70